Truro, Canada
Current Conditions -  °F | °C
As of 10:00 AM on Monday 24 Nov 2014 (Local Time) from CYHZ Reporting Station
Broken Clouds Broken Clouds  
Wind Chill: 37°   Ceiling: 10000
Heat Index: 43°   Visibility: 15mi
Dew Point: 41°   Wind: 12mph
Humidity: 93%   Direction: 150°SSE
Pressure: 30.22"   Gusts: NA
Location:  45.37°N, 63.29°W
Report Text: CYHZ 241400Z 15010KT 15SM BKN100 06/05 A3022 RMK AC7 PRESFR SLP238
Loading
Personal Weather Stations






























Interactive Weather Map New forecast layout! Learn more

10-Day Weather Forecast

Advertisements
Track Severe Weather on mobile